Time;durP1;ratioP1;P1;durP2;ratioP2;P2;SDS_P1;SDS_P2;PMS_P1;PMS_P2;Temp;Humidity;BMP_temperature;BMP_pressure;BME280_temperature;BME280_humidity;BME280_pressure;Samples;Min_cycle;Max_cycle;Signal;HPM_P1;HPM_P2
2020/12/08 00:01:48;;;;;;;;;;;;;;;;;;5070336;23;19913;-40
2020/12/08 00:04:13;;;;;;;;;;;;;;;;;;5011617;28;19925;-42
2020/12/08 00:06:38;;;;;;;;;;;;;;;;;;5015011;28;19910;-43
2020/12/08 00:09:03;;;;;;;;;;;;;;;;;;5014849;28;19916;-41
2020/12/08 00:11:28;;;;;;;;;;;;;;;;;;5014735;28;19909;-42
2020/12/08 00:13:53;;;;;;;;;;;;;;;;;;4995867;28;19910;-41
2020/12/08 00:16:18;;;;;;;;;;;;;;;;;;4991447;28;19910;-42
2020/12/08 00:18:43;;;;;;;;;;;;;;;;;;4994123;28;19910;-41
2020/12/08 00:21:08;;;;;;;;;;;;;;;;;;4995171;28;19910;-42
2020/12/08 00:23:33;;;;;;;;;;;;;;;;;;4994151;28;19921;-45
2020/12/08 00:25:59;;;;;;;;;;;;;;;;;;4994778;28;20322;-41
2020/12/08 00:28:24;;;;;;;;;;;;;;;;;;4994802;28;20375;-44
2020/12/08 00:30:49;;;;;;;;;;;;;;;;;;4994897;28;19909;-43
2020/12/08 00:33:14;;;;;;;;;;;;;;;;;;4994050;28;19909;-45
2020/12/08 00:35:39;;;;;;;;;;;;;;;;;;4994696;28;19937;-41
2020/12/08 00:38:05;;;;;;;;;;;;;;;;;;4994710;28;19914;-43
2020/12/08 00:40:30;;;;;;;;;;;;;;;;;;4994666;28;19914;-43
2020/12/08 00:42:55;;;;;;;;;;;;;;;;;;4993737;28;19917;-43
2020/12/08 00:45:20;;;;;;;;;;;;;;;;;;4994633;28;19910;-44
2020/12/08 00:47:45;;;;;;;;;;;;;;;;;;4994675;28;19914;-43
2020/12/08 00:50:10;;;;;;;;;;;;;;;;;;4994314;28;19916;-42
2020/12/08 00:52:35;;;;;;;;;;;;;;;;;;4993682;28;19916;-41
2020/12/08 00:55:00;;;;;;;;;;;;;;;;;;4994515;28;20005;-44
2020/12/08 00:57:25;;;;;;;;;;;;;;;;;;4994146;28;19992;-41
2020/12/08 00:59:50;;;;;;;;;;;;;;;;;;4994305;28;20385;-44
2020/12/08 01:02:16;;;;;;;;;;;;;;;;;;4993396;28;19917;-41
2020/12/08 01:04:41;;;;;;;;;;;;;;;;;;4994262;28;20299;-44
2020/12/08 01:07:06;;;;;;;;;;;;;;;;;;4994231;28;19909;-42
2020/12/08 01:09:31;;;;;;;;;;;;;;;;;;4993954;28;19964;-43
2020/12/08 01:11:56;;;;;;;;;;;;;;;;;;4993197;28;19983;-46
2020/12/08 01:14:21;;;;;;;;;;;;;;;;;;4993797;28;19977;-41
2020/12/08 01:16:46;;;;;;;;;;;;;;;;;;4992129;28;19949;-41
2020/12/08 01:19:13;;;;;;;;;;;;;;;;;;4993734;28;19997;-43
2020/12/08 01:21:38;;;;;;;;;;;;;;;;;;4993873;28;19909;-42
2020/12/08 01:24:03;;;;;;;;;;;;;;;;;;4993079;28;20109;-43
2020/12/08 01:26:28;;;;;;;;;;;;;;;;;;4993808;28;20040;-42
2020/12/08 01:28:53;;;;;;;;;;;;;;;;;;4993702;28;20044;-44
2020/12/08 01:31:18;;;;;;;;;;;;;;;;;;4993705;28;20367;-40
2020/12/08 01:33:43;;;;;;;;;;;;;;;;;;4992817;28;20326;-44
2020/12/08 01:36:09;;;;;;;;;;;;;;;;;;4993364;28;19909;-42
2020/12/08 01:38:34;;;;;;;;;;;;;;;;;;4993485;28;19910;-42
2020/12/08 01:40:59;;;;;;;;;;;;;;;;;;4993600;28;19918;-41
2020/12/08 01:43:24;;;;;;;;;;;;;;;;;;4992602;28;19920;-43
2020/12/08 01:45:49;;;;;;;;;;;;;;;;;;4993389;28;19917;-42
2020/12/08 01:48:14;;;;;;;;;;;;;;;;;;4993394;28;19910;-42
2020/12/08 01:50:39;;;;;;;;;;;;;;;;;;4993378;28;20367;-41
2020/12/08 01:53:04;;;;;;;;;;;;;;;;;;4992556;28;19909;-43
2020/12/08 01:55:30;;;;;;;;;;;;;;;;;;4993306;28;19917;-42
2020/12/08 01:57:55;;;;;;;;;;;;;;;;;;4993169;28;20401;-42
2020/12/08 02:00:20;;;;;;;;;;;;;;;;;;4993381;28;20377;-42
2020/12/08 02:02:45;;;;;;;;;;;;;;;;;;4991758;28;19918;-42
2020/12/08 02:05:10;;;;;;;;;;;;;;;;;;4993188;28;19965;-44
2020/12/08 02:07:35;;;;;;;;;;;;;;;;;;4993216;28;20366;-41
2020/12/08 02:10:00;;;;;;;;;;;;;;;;;;4993113;28;19914;-43
2020/12/08 02:12:25;;;;;;;;;;;;;;;;;;4992224;28;19910;-41
2020/12/08 02:14:50;;;;;;;;;;;;;;;;;;4993258;28;20009;-44
2020/12/08 02:17:16;;;;;;;;;;;;;;;;;;4991260;28;19945;-41
2020/12/08 02:19:41;;;;;;;;;;;;;;;;;;4992896;28;19918;-44
2020/12/08 02:22:06;;;;;;;;;;;;;;;;;;4992439;28;19910;-41
2020/12/08 02:24:31;;;;;;;;;;;;;;;;;;4992822;28;19917;-41
2020/12/08 02:26:56;;;;;;;;;;;;;;;;;;4992727;28;19917;-41
2020/12/08 02:29:21;;;;;;;;;;;;;;;;;;4992836;28;19909;-41
2020/12/08 02:31:46;;;;;;;;;;;;;;;;;;4992782;28;19914;-42
2020/12/08 02:34:11;;;;;;;;;;;;;;;;;;4992329;28;19916;-43
2020/12/08 02:36:36;;;;;;;;;;;;;;;;;;4992752;28;19968;-41
2020/12/08 02:39:02;;;;;;;;;;;;;;;;;;4992859;28;19922;-41
2020/12/08 02:41:27;;;;;;;;;;;;;;;;;;4992812;28;19917;-41
2020/12/08 02:43:53;;;;;;;;;;;;;;;;;;4991978;28;19910;-41
2020/12/08 02:46:18;;;;;;;;;;;;;;;;;;4992997;28;19910;-43
2020/12/08 02:48:43;;;;;;;;;;;;;;;;;;4993112;28;20397;-44
2020/12/08 02:51:08;;;;;;;;;;;;;;;;;;4992817;28;19963;-41
2020/12/08 02:53:33;;;;;;;;;;;;;;;;;;4991857;28;19916;-44
2020/12/08 02:55:58;;;;;;;;;;;;;;;;;;4992609;28;19909;-41
2020/12/08 02:58:24;;;;;;;;;;;;;;;;;;4992499;28;20004;-43
2020/12/08 03:00:49;;;;;;;;;;;;;;;;;;4992519;28;20009;-40
2020/12/08 03:03:14;;;;;;;;;;;;;;;;;;4991671;28;20022;-43
2020/12/08 03:05:39;;;;;;;;;;;;;;;;;;4992637;28;19992;-42
2020/12/08 03:08:04;;;;;;;;;;;;;;;;;;4992780;28;20335;-43
2020/12/08 03:10:29;;;;;;;;;;;;;;;;;;4992583;28;20367;-42
2020/12/08 03:12:54;;;;;;;;;;;;;;;;;;4992748;28;20466;-42
2020/12/08 03:15:19;;;;;;;;;;;;;;;;;;4996189;28;20418;-42
2020/12/08 03:17:44;;;;;;;;;;;;;;;;;;4994282;28;20013;-43
2020/12/08 03:20:09;;;;;;;;;;;;;;;;;;4996091;28;20009;-42
2020/12/08 03:22:35;;;;;;;;;;;;;;;;;;4995378;28;20292;-42
2020/12/08 03:25:00;;;;;;;;;;;;;;;;;;4996051;28;20359;-42
2020/12/08 03:27:25;;;;;;;;;;;;;;;;;;4996011;28;19938;-42
2020/12/08 03:29:50;;;;;;;;;;;;;;;;;;4995910;28;20431;-44
2020/12/08 03:32:15;;;;;;;;;;;;;;;;;;4995181;28;19914;-39
2020/12/08 03:34:40;;;;;;;;;;;;;;;;;;4995881;28;19910;-43
2020/12/08 03:37:05;;;;;;;;;;;;;;;;;;4995785;28;19909;-41
2020/12/08 03:39:31;;;;;;;;;;;;;;;;;;4995629;28;19923;-43
2020/12/08 03:41:56;;;;;;;;;;;;;;;;;;4995038;28;19914;-39
2020/12/08 03:44:21;;;;;;;;;;;;;;;;;;4995297;28;19913;-43
2020/12/08 03:46:46;;;;;;;;;;;;;;;;;;4995671;28;19933;-41
2020/12/08 03:49:11;;;;;;;;;;;;;;;;;;4995682;28;19914;-43
2020/12/08 03:51:36;;;;;;;;;;;;;;;;;;4994368;28;20358;-43
2020/12/08 03:54:01;;;;;;;;;;;;;;;;;;4993956;28;20287;-42
2020/12/08 03:56:26;;;;;;;;;;;;;;;;;;4995496;28;20382;-43
2020/12/08 03:58:52;;;;;;;;;;;;;;;;;;4995428;28;20303;-41
2020/12/08 04:01:17;;;;;;;;;;;;;;;;;;4995619;28;19961;-40
2020/12/08 04:03:42;;;;;;;;;;;;;;;;;;4994523;28;19929;-42
2020/12/08 04:06:07;;;;;;;;;;;;;;;;;;4995180;28;20299;-44
2020/12/08 04:08:32;;;;;;;;;;;;;;;;;;4995331;28;19914;-40
2020/12/08 04:10:57;;;;;;;;;;;;;;;;;;4995594;28;20298;-43
2020/12/08 04:13:22;;;;;;;;;;;;;;;;;;4994286;28;20287;-43
2020/12/08 04:15:47;;;;;;;;;;;;;;;;;;4994362;28;20418;-43
2020/12/08 04:18:12;;;;;;;;;;;;;;;;;;4994347;28;19910;-42
2020/12/08 04:20:38;;;;;;;;;;;;;;;;;;4994997;28;20024;-42
2020/12/08 04:23:03;;;;;;;;;;;;;;;;;;4994204;28;19964;-41
2020/12/08 04:25:28;;;;;;;;;;;;;;;;;;4994306;28;19914;-42
2020/12/08 04:27:53;;;;;;;;;;;;;;;;;;4994835;28;19910;-42
2020/12/08 04:30:18;;;;;;;;;;;;;;;;;;4994986;28;20022;-42
2020/12/08 04:32:43;;;;;;;;;;;;;;;;;;4994109;28;19914;-41
2020/12/08 04:35:08;;;;;;;;;;;;;;;;;;4994764;28;19914;-42
2020/12/08 04:37:33;;;;;;;;;;;;;;;;;;4994745;28;19910;-42
2020/12/08 04:39:58;;;;;;;;;;;;;;;;;;4994613;28;19968;-43
2020/12/08 04:42:23;;;;;;;;;;;;;;;;;;4993887;28;19913;-40
2020/12/08 04:44:49;;;;;;;;;;;;;;;;;;4994550;28;19910;-42
2020/12/08 04:47:14;;;;;;;;;;;;;;;;;;4994706;28;20430;-41
2020/12/08 04:49:39;;;;;;;;;;;;;;;;;;4994401;28;20009;-43
2020/12/08 04:52:04;;;;;;;;;;;;;;;;;;4993822;28;20001;-42
2020/12/08 04:54:29;;;;;;;;;;;;;;;;;;4994449;28;20017;-42
2020/12/08 04:56:54;;;;;;;;;;;;;;;;;;4994375;28;20277;-40
2020/12/08 04:59:20;;;;;;;;;;;;;;;;;;4994284;28;20383;-41
2020/12/08 05:01:45;;;;;;;;;;;;;;;;;;4994375;28;19910;-42
2020/12/08 05:04:10;;;;;;;;;;;;;;;;;;4993430;28;19917;-41
2020/12/08 05:06:35;;;;;;;;;;;;;;;;;;4994271;28;19906;-43
2020/12/08 05:09:00;;;;;;;;;;;;;;;;;;4994221;28;19917;-41
2020/12/08 05:11:25;;;;;;;;;;;;;;;;;;4994123;28;19929;-42
2020/12/08 05:13:50;;;;;;;;;;;;;;;;;;4993107;28;20382;-42
2020/12/08 05:16:15;;;;;;;;;;;;;;;;;;4992288;28;20375;-41
2020/12/08 05:18:41;;;;;;;;;;;;;;;;;;4994013;28;19909;-41
2020/12/08 05:21:06;;;;;;;;;;;;;;;;;;4993992;28;19917;-41
2020/12/08 05:23:31;;;;;;;;;;;;;;;;;;4993162;28;20000;-43
2020/12/08 05:25:56;;;;;;;;;;;;;;;;;;4993808;28;20008;-40
2020/12/08 05:28:21;;;;;;;;;;;;;;;;;;4993762;28;20009;-43
2020/12/08 05:30:46;;;;;;;;;;;;;;;;;;4993874;28;20079;-42
2020/12/08 05:33:11;;;;;;;;;;;;;;;;;;4993065;28;20357;-42
2020/12/08 05:35:36;;;;;;;;;;;;;;;;;;4993720;28;20350;-41
2020/12/08 05:38:01;;;;;;;;;;;;;;;;;;4993025;28;20290;-41
2020/12/08 05:40:27;;;;;;;;;;;;;;;;;;4993609;28;20291;-41
2020/12/08 05:42:52;;;;;;;;;;;;;;;;;;4992697;28;20388;-40
2020/12/08 05:45:17;;;;;;;;;;;;;;;;;;4993575;28;20402;-41
2020/12/08 05:47:42;;;;;;;;;;;;;;;;;;4993484;28;19910;-42
2020/12/08 05:50:07;;;;;;;;;;;;;;;;;;4993617;28;19910;-40
2020/12/08 05:52:32;;;;;;;;;;;;;;;;;;4992622;28;19917;-42
2020/12/08 05:54:57;;;;;;;;;;;;;;;;;;4993534;28;19921;-40
2020/12/08 05:57:22;;;;;;;;;;;;;;;;;;4991041;28;19910;-44
2020/12/08 05:59:47;;;;;;;;;;;;;;;;;;4993024;28;19925;-41
2020/12/08 06:02:13;;;;;;;;;;;;;;;;;;4992367;28;19914;-42
2020/12/08 06:04:38;;;;;;;;;;;;;;;;;;4993110;28;19914;-41
2020/12/08 06:07:03;;;;;;;;;;;;;;;;;;5050405;23;19925;-40
2020/12/08 06:09:30;;;;;;;;;;;;;;;;;;5012972;28;19916;-39
2020/12/08 06:11:55;;;;;;;;;;;;;;;;;;5012364;28;19968;-39
2020/12/08 06:14:20;;;;;;;;;;;;;;;;;;5012560;28;19909;-39
2020/12/08 06:16:45;;;;;;;;;;;;;;;;;;5009885;28;20355;-39
2020/12/08 06:19:10;;;;;;;;;;;;;;;;;;4992886;28;20359;-40
2020/12/08 06:21:35;;;;;;;;;;;;;;;;;;4991365;28;19917;-39
2020/12/08 06:24:01;;;;;;;;;;;;;;;;;;4992290;28;19910;-39
2020/12/08 06:26:26;;;;;;;;;;;;;;;;;;4993097;28;19909;-38
2020/12/08 06:28:51;;;;;;;;;;;;;;;;;;4993225;28;19914;-39
2020/12/08 06:31:16;;;;;;;;;;;;;;;;;;4992156;28;19909;-38
2020/12/08 06:33:41;;;;;;;;;;;;;;;;;;4984414;28;19917;-40
2020/12/08 06:36:07;;;;;;;;;;;;;;;;;;4979970;28;20393;-41
2020/12/08 06:38:32;;;;;;;;;;;;;;;;;;4991921;28;19917;-39
2020/12/08 06:40:57;;;;;;;;;;;;;;;;;;4992481;28;19921;-39
2020/12/08 06:43:22;;;;;;;;;;;;;;;;;;4991265;28;19910;-39
2020/12/08 06:45:47;;;;;;;;;;;;;;;;;;4992135;28;19910;-39
2020/12/08 06:48:12;;;;;;;;;;;;;;;;;;4993362;28;20379;-39
2020/12/08 06:50:37;;;;;;;;;;;;;;;;;;4996172;28;19910;-39
2020/12/08 06:53:02;;;;;;;;;;;;;;;;;;4995006;28;19910;-39
2020/12/08 06:55:28;;;;;;;;;;;;;;;;;;4995891;28;19917;-39
2020/12/08 06:57:53;;;;;;;;;;;;;;;;;;4996226;28;19914;-39
2020/12/08 07:00:18;;;;;;;;;;;;;;;;;;4995892;28;19914;-39
2020/12/08 07:02:48;;;;;;;;;;;;;;;;;;4995009;28;19936;-40
2020/12/08 07:05:13;;;;;;;;;;;;;;;;;;4995411;28;19916;-40
2020/12/08 07:07:38;;;;;;;;;;;;;;;;;;4995590;28;20117;-39
2020/12/08 07:10:03;;;;;;;;;;;;;;;;;;4995477;28;19953;-40
2020/12/08 07:12:28;;;;;;;;;;;;;;;;;;4994884;28;20354;-38
2020/12/08 07:14:54;;;;;;;;;;;;;;;;;;4995513;28;19916;-39
2020/12/08 07:17:19;;;;;;;;;;;;;;;;;;4995551;28;19910;-41
2020/12/08 07:19:44;;;;;;;;;;;;;;;;;;4995358;28;19918;-39
2020/12/08 07:22:09;;;;;;;;;;;;;;;;;;4994996;28;19916;-39
2020/12/08 07:24:34;;;;;;;;;;;;;;;;;;4995457;28;20012;-39
2020/12/08 07:27:00;;;;;;;;;;;;;;;;;;4995565;28;19910;-45
2020/12/08 07:29:25;;;;;;;;;;;;;;;;;;4995343;28;19910;-41
2020/12/08 07:31:51;;;;;;;;;;;;;;;;;;4995287;28;19917;-37
2020/12/08 07:34:16;;;;;;;;;;;;;;;;;;4995035;28;20000;-40
2020/12/08 07:36:41;;;;;;;;;;;;;;;;;;4995422;28;20383;-39
2020/12/08 07:39:10;;;;;;;;;;;;;;;;;;4995311;28;19968;-39
2020/12/08 07:41:35;;;;;;;;;;;;;;;;;;4995132;28;19925;-38
2020/12/08 07:44:00;;;;;;;;;;;;;;;;;;4994841;28;19910;-39
2020/12/08 07:46:25;;;;;;;;;;;;;;;;;;4995127;28;20364;-39
2020/12/08 07:48:50;;;;;;;;;;;;;;;;;;4994992;28;19909;-39
2020/12/08 07:51:15;;;;;;;;;;;;;;;;;;4995326;28;19910;-40
2020/12/08 07:53:41;;;;;;;;;;;;;;;;;;4994315;28;19910;-41
2020/12/08 07:56:06;;;;;;;;;;;;;;;;;;4994821;28;19917;-38
2020/12/08 07:58:31;;;;;;;;;;;;;;;;;;4994928;28;19917;-39
2020/12/08 08:00:56;;;;;;;;;;;;;;;;;;4994044;28;19914;-39
2020/12/08 08:03:21;;;;;;;;;;;;;;;;;;4976992;28;19910;-39
2020/12/08 08:05:46;;;;;;;;;;;;;;;;;;4994487;28;19920;-39
2020/12/08 08:08:11;;;;;;;;;;;;;;;;;;4994943;28;19924;-39
2020/12/08 08:10:36;;;;;;;;;;;;;;;;;;4994850;28;19910;-41
2020/12/08 08:13:01;;;;;;;;;;;;;;;;;;4994150;28;19961;-39
2020/12/08 08:15:27;;;;;;;;;;;;;;;;;;4994459;28;19909;-40
2020/12/08 08:17:52;;;;;;;;;;;;;;;;;;4994934;28;20287;-39
2020/12/08 08:20:17;;;;;;;;;;;;;;;;;;4994768;28;20298;-39
2020/12/08 08:22:42;;;;;;;;;;;;;;;;;;4993678;28;20298;-39
2020/12/08 08:25:07;;;;;;;;;;;;;;;;;;4994275;28;20462;-39
2020/12/08 08:27:32;;;;;;;;;;;;;;;;;;4994447;28;20451;-39
2020/12/08 08:29:57;;;;;;;;;;;;;;;;;;4994465;28;19990;-40
2020/12/08 08:32:22;;;;;;;;;;;;;;;;;;4994049;28;20259;-39
2020/12/08 08:34:47;;;;;;;;;;;;;;;;;;4994814;28;19916;-39
2020/12/08 08:37:13;;;;;;;;;;;;;;;;;;4994670;28;19913;-40
2020/12/08 08:39:38;;;;;;;;;;;;;;;;;;4993677;28;20008;-39
2020/12/08 08:42:03;;;;;;;;;;;;;;;;;;4992595;28;19909;-41
2020/12/08 08:44:28;;;;;;;;;;;;;;;;;;4992497;28;20060;-40
2020/12/08 08:46:53;;;;;;;;;;;;;;;;;;4993801;28;20000;-41
2020/12/08 08:49:19;;;;;;;;;;;;;;;;;;4993471;28;19960;-41
2020/12/08 08:51:44;;;;;;;;;;;;;;;;;;4993410;28;20443;-41
2020/12/08 08:54:09;;;;;;;;;;;;;;;;;;4992730;28;19913;-41
2020/12/08 08:56:34;;;;;;;;;;;;;;;;;;4993412;28;19989;-41
2020/12/08 08:58:59;;;;;;;;;;;;;;;;;;4993286;28;19914;-41
2020/12/08 09:01:24;;;;;;;;;;;;;;;;;;4993329;28;19945;-41
2020/12/08 09:03:49;;;;;;;;;;;;;;;;;;4992545;28;20020;-42
2020/12/08 09:06:14;;;;;;;;;;;;;;;;;;4993202;28;20012;-41
2020/12/08 09:08:40;;;;;;;;;;;;;;;;;;4992897;28;20013;-42
2020/12/08 09:11:05;;;;;;;;;;;;;;;;;;4992809;28;20016;-41
2020/12/08 09:13:31;;;;;;;;;;;;;;;;;;4992470;28;19916;-41
2020/12/08 09:15:56;;;;;;;;;;;;;;;;;;4992875;28;20413;-42
2020/12/08 09:18:21;;;;;;;;;;;;;;;;;;4992865;28;20478;-41
2020/12/08 09:20:46;;;;;;;;;;;;;;;;;;4992857;28;20407;-41
2020/12/08 09:23:11;;;;;;;;;;;;;;;;;;4992288;28;20403;-41
2020/12/08 09:25:36;;;;;;;;;;;;;;;;;;4992601;28;19933;-41
2020/12/08 09:28:01;;;;;;;;;;;;;;;;;;4992460;28;19910;-41
2020/12/08 09:30:26;;;;;;;;;;;;;;;;;;4992867;28;19917;-41
2020/12/08 09:32:51;;;;;;;;;;;;;;;;;;4991981;28;19910;-41
2020/12/08 09:35:17;;;;;;;;;;;;;;;;;;4992522;28;19913;-41
2020/12/08 09:37:42;;;;;;;;;;;;;;;;;;4992379;28;20330;-41
2020/12/08 09:40:07;;;;;;;;;;;;;;;;;;4992649;28;19922;-41
2020/12/08 09:42:32;;;;;;;;;;;;;;;;;;4991705;28;20364;-41
2020/12/08 09:44:57;;;;;;;;;;;;;;;;;;4991506;28;19916;-41
2020/12/08 09:47:22;;;;;;;;;;;;;;;;;;4992428;28;20306;-41
2020/12/08 09:49:47;;;;;;;;;;;;;;;;;;4992408;28;19910;-41
2020/12/08 09:52:12;;;;;;;;;;;;;;;;;;4991649;28;20000;-42
2020/12/08 09:54:38;;;;;;;;;;;;;;;;;;4992238;28;19997;-41
2020/12/08 09:57:03;;;;;;;;;;;;;;;;;;4992301;28;19971;-42
2020/12/08 09:59:28;;;;;;;;;;;;;;;;;;4992400;28;20322;-42
2020/12/08 10:01:53;;;;;;;;;;;;;;;;;;4992067;28;20472;-41
2020/12/08 10:04:19;;;;;;;;;;;;;;;;;;4991570;28;19949;-42
2020/12/08 10:06:44;;;;;;;;;;;;;;;;;;4992295;28;19910;-41
2020/12/08 10:09:09;;;;;;;;;;;;;;;;;;4992286;28;19924;-41
2020/12/08 10:11:34;;;;;;;;;;;;;;;;;;4991988;28;19941;-41
2020/12/08 10:13:59;;;;;;;;;;;;;;;;;;4991285;28;19936;-41
2020/12/08 10:16:24;;;;;;;;;;;;;;;;;;4992364;28;20375;-41
2020/12/08 10:18:49;;;;;;;;;;;;;;;;;;4991945;28;20402;-42
2020/12/08 10:21:14;;;;;;;;;;;;;;;;;;4991965;28;19914;-41
2020/12/08 10:23:40;;;;;;;;;;;;;;;;;;4990796;28;19913;-42
2020/12/08 10:26:05;;;;;;;;;;;;;;;;;;4991994;28;20306;-41
2020/12/08 10:28:30;;;;;;;;;;;;;;;;;;4991739;28;20276;-41
2020/12/08 10:30:55;;;;;;;;;;;;;;;;;;4991951;28;20306;-41
2020/12/08 10:33:20;;;;;;;;;;;;;;;;;;4991790;28;20356;-41
2020/12/08 10:35:45;;;;;;;;;;;;;;;;;;4991879;28;20448;-41
2020/12/08 10:38:12;;;;;;;;;;;;;;;;;;4991652;28;19918;-41
2020/12/08 10:40:37;;;;;;;;;;;;;;;;;;4991630;28;19981;-42
2020/12/08 10:43:03;;;;;;;;;;;;;;;;;;4991465;28;19936;-41
2020/12/08 10:45:28;;;;;;;;;;;;;;;;;;4990617;28;20001;-43
2020/12/08 10:47:53;;;;;;;;;;;;;;;;;;4991519;28;19992;-41
2020/12/08 10:50:18;;;;;;;;;;;;;;;;;;4991743;28;20015;-42
2020/12/08 10:52:43;;;;;;;;;;;;;;;;;;4991206;28;20327;-42
2020/12/08 10:55:08;;;;;;;;;;;;;;;;;;4991715;28;19952;-42
2020/12/08 10:57:33;;;;;;;;;;;;;;;;;;4991448;28;19909;-41
2020/12/08 10:59:58;;;;;;;;;;;;;;;;;;4991643;28;19921;-41
2020/12/08 11:02:23;;;;;;;;;;;;;;;;;;4990841;28;19910;-40
2020/12/08 11:04:49;;;;;;;;;;;;;;;;;;4991477;28;19914;-42
2020/12/08 11:07:14;;;;;;;;;;;;;;;;;;4991640;28;19917;-41
2020/12/08 11:09:39;;;;;;;;;;;;;;;;;;4991772;28;19914;-41
2020/12/08 11:12:04;;;;;;;;;;;;;;;;;;4990699;28;19910;-41
2020/12/08 11:14:29;;;;;;;;;;;;;;;;;;4991219;28;19910;-41
2020/12/08 11:16:54;;;;;;;;;;;;;;;;;;4991645;28;19972;-40
2020/12/08 11:19:19;;;;;;;;;;;;;;;;;;4991652;28;19928;-41
2020/12/08 11:21:45;;;;;;;;;;;;;;;;;;4991301;28;19910;-42
2020/12/08 11:24:11;;;;;;;;;;;;;;;;;;4990575;28;20009;-41
2020/12/08 11:26:36;;;;;;;;;;;;;;;;;;4991345;28;19916;-41
2020/12/08 11:29:01;;;;;;;;;;;;;;;;;;4989832;28;19910;-42
2020/12/08 11:31:26;;;;;;;;;;;;;;;;;;4991165;28;19932;-41
2020/12/08 11:33:51;;;;;;;;;;;;;;;;;;4990316;28;20008;-40
2020/12/08 11:36:16;;;;;;;;;;;;;;;;;;4994179;28;20001;-42
2020/12/08 11:38:42;;;;;;;;;;;;;;;;;;4994566;28;19910;-41
2020/12/08 11:41:07;;;;;;;;;;;;;;;;;;4994481;28;19920;-41
2020/12/08 11:43:32;;;;;;;;;;;;;;;;;;4994211;28;20295;-40
2020/12/08 11:45:57;;;;;;;;;;;;;;;;;;4992749;28;20299;-41
2020/12/08 11:48:23;;;;;;;;;;;;;;;;;;4994528;28;20379;-41
2020/12/08 11:50:48;;;;;;;;;;;;;;;;;;4994393;28;19910;-41
2020/12/08 11:53:13;;;;;;;;;;;;;;;;;;4994057;28;19909;-41
2020/12/08 11:55:38;;;;;;;;;;;;;;;;;;4994380;28;19968;-40
2020/12/08 11:58:03;;;;;;;;;;;;;;;;;;4994160;28;19910;-41
2020/12/08 12:00:28;;;;;;;;;;;;;;;;;;4994182;28;19914;-41
2020/12/08 12:02:54;;;;;;;;;;;;;;;;;;4993609;28;19929;-41
2020/12/08 12:05:19;;;;;;;;;;;;;;;;;;4994308;28;20440;-40
2020/12/08 12:07:44;;;;;;;;;;;;;;;;;;5057530;23;19929;-43
2020/12/08 12:10:09;;;;;;;;;;;;;;;;;;5033721;28;19972;-43
2020/12/08 12:12:34;;;;;;;;;;;;;;;;;;5032832;28;19996;-41
2020/12/08 12:14:59;;;;;;;;;;;;;;;;;;5033757;28;19909;-41
2020/12/08 12:17:24;;;;;;;;;;;;;;;;;;5032451;28;19910;-42
2020/12/08 12:19:50;;;;;;;;;;;;;;;;;;5033616;28;19924;-42
2020/12/08 12:22:15;;;;;;;;;;;;;;;;;;5031944;28;20324;-40
2020/12/08 12:24:40;;;;;;;;;;;;;;;;;;5033449;28;19913;-45
2020/12/08 12:27:05;;;;;;;;;;;;;;;;;;5033219;28;19909;-44
2020/12/08 12:29:30;;;;;;;;;;;;;;;;;;5032524;28;19912;-46
2020/12/08 12:31:55;;;;;;;;;;;;;;;;;;5033185;28;19913;-45
2020/12/08 12:34:20;;;;;;;;;;;;;;;;;;5033069;28;19909;-43
2020/12/08 12:36:45;;;;;;;;;;;;;;;;;;5033337;28;19909;-46
2020/12/08 12:39:10;;;;;;;;;;;;;;;;;;5033129;28;19921;-43
2020/12/08 12:41:35;;;;;;;;;;;;;;;;;;5033017;28;19909;-42
2020/12/08 12:44:01;;;;;;;;;;;;;;;;;;5032116;28;19909;-43
2020/12/08 12:46:26;;;;;;;;;;;;;;;;;;5033017;28;19915;-43
2020/12/08 12:48:51;;;;;;;;;;;;;;;;;;5033050;28;19913;-41
2020/12/08 12:51:16;;;;;;;;;;;;;;;;;;5032878;28;19909;-42
2020/12/08 12:53:41;;;;;;;;;;;;;;;;;;5032520;28;19920;-43
2020/12/08 12:56:06;;;;;;;;;;;;;;;;;;5033115;28;19916;-43
2020/12/08 12:58:31;;;;;;;;;;;;;;;;;;5033250;28;19909;-44
2020/12/08 13:00:56;;;;;;;;;;;;;;;;;;5032596;28;20184;-44
2020/12/08 13:03:21;;;;;;;;;;;;;;;;;;5032314;28;19914;-42
2020/12/08 13:05:47;;;;;;;;;;;;;;;;;;5032751;28;19909;-45
2020/12/08 13:08:12;;;;;;;;;;;;;;;;;;5032590;28;19921;-41
2020/12/08 13:10:37;;;;;;;;;;;;;;;;;;5032501;28;20000;-46
2020/12/08 13:13:02;;;;;;;;;;;;;;;;;;5031951;28;19909;-44
2020/12/08 13:15:27;;;;;;;;;;;;;;;;;;5032620;28;19909;-44
2020/12/08 13:17:52;;;;;;;;;;;;;;;;;;5032329;28;19917;-41
2020/12/08 13:20:17;;;;;;;;;;;;;;;;;;5032788;28;19917;-43
2020/12/08 13:22:42;;;;;;;;;;;;;;;;;;5031060;28;19952;-42
2020/12/08 13:25:08;;;;;;;;;;;;;;;;;;5032297;28;19959;-44
2020/12/08 13:27:33;;;;;;;;;;;;;;;;;;5031993;28;19952;-43
2020/12/08 13:29:58;;;;;;;;;;;;;;;;;;5032205;28;19967;-42
2020/12/08 13:32:23;;;;;;;;;;;;;;;;;;5031848;28;19909;-42
2020/12/08 13:34:48;;;;;;;;;;;;;;;;;;5032322;28;20003;-42
2020/12/08 13:37:13;;;;;;;;;;;;;;;;;;5032484;28;20008;-42
2020/12/08 13:39:38;;;;;;;;;;;;;;;;;;5032202;28;20004;-43
2020/12/08 13:42:03;;;;;;;;;;;;;;;;;;5031416;28;19909;-40
2020/12/08 13:44:28;;;;;;;;;;;;;;;;;;5025863;28;20260;-42
2020/12/08 13:46:54;;;;;;;;;;;;;;;;;;5012188;28;20443;-46
2020/12/08 13:49:19;;;;;;;;;;;;;;;;;;5012426;28;19975;-43
2020/12/08 13:51:44;;;;;;;;;;;;;;;;;;5011798;28;19949;-45
2020/12/08 13:54:09;;;;;;;;;;;;;;;;;;5011327;28;19945;-43
2020/12/08 13:56:34;;;;;;;;;;;;;;;;;;5012061;28;19910;-44
2020/12/08 13:58:59;;;;;;;;;;;;;;;;;;5011365;28;19909;-42
2020/12/08 14:01:24;;;;;;;;;;;;;;;;;;5012168;28;19909;-42
2020/12/08 14:03:49;;;;;;;;;;;;;;;;;;5011503;28;19909;-42
2020/12/08 14:06:15;;;;;;;;;;;;;;;;;;5012272;28;19946;-43
2020/12/08 14:08:40;;;;;;;;;;;;;;;;;;5012322;28;19964;-42
2020/12/08 14:11:05;;;;;;;;;;;;;;;;;;5011769;28;20294;-42
2020/12/08 14:13:31;;;;;;;;;;;;;;;;;;5011107;28;19914;-44
2020/12/08 14:15:56;;;;;;;;;;;;;;;;;;5012118;28;19987;-42
2020/12/08 14:18:21;;;;;;;;;;;;;;;;;;5011710;28;20306;-43
2020/12/08 14:20:46;;;;;;;;;;;;;;;;;;5011668;28;20223;-42
2020/12/08 14:23:11;;;;;;;;;;;;;;;;;;5010265;28;19971;-45
2020/12/08 14:25:36;;;;;;;;;;;;;;;;;;5011821;28;19909;-44
2020/12/08 14:28:01;;;;;;;;;;;;;;;;;;5011515;28;19929;-40
2020/12/08 14:30:27;;;;;;;;;;;;;;;;;;5011721;28;20173;-46
2020/12/08 14:32:52;;;;;;;;;;;;;;;;;;5011291;28;19960;-43
2020/12/08 14:35:17;;;;;;;;;;;;;;;;;;5011885;28;19917;-46
2020/12/08 14:37:42;;;;;;;;;;;;;;;;;;5011441;28;19914;-43
2020/12/08 14:40:07;;;;;;;;;;;;;;;;;;5011470;28;19913;-45
2020/12/08 14:42:33;;;;;;;;;;;;;;;;;;5010978;28;20337;-43
2020/12/08 14:44:58;;;;;;;;;;;;;;;;;;5021745;28;19909;-42
2020/12/08 14:47:23;;;;;;;;;;;;;;;;;;5031286;28;19934;-41
2020/12/08 14:49:48;;;;;;;;;;;;;;;;;;5031312;28;20361;-42
2020/12/08 14:52:13;;;;;;;;;;;;;;;;;;5030722;28;19948;-42
2020/12/08 14:54:39;;;;;;;;;;;;;;;;;;5031387;28;19964;-42
2020/12/08 14:57:05;;;;;;;;;;;;;;;;;;5031019;28;19909;-43
2020/12/08 14:59:30;;;;;;;;;;;;;;;;;;5031177;28;20379;-43
2020/12/08 15:01:55;;;;;;;;;;;;;;;;;;5031078;28;19909;-42
2020/12/08 15:04:20;;;;;;;;;;;;;;;;;;5030945;28;19910;-43
2020/12/08 15:06:45;;;;;;;;;;;;;;;;;;5031138;28;19909;-41
2020/12/08 15:09:10;;;;;;;;;;;;;;;;;;5032535;28;19971;-43
2020/12/08 15:11:35;;;;;;;;;;;;;;;;;;5035251;28;19913;-41
2020/12/08 15:14:01;;;;;;;;;;;;;;;;;;5033902;28;20348;-42
2020/12/08 15:16:26;;;;;;;;;;;;;;;;;;5034684;28;19959;-43
2020/12/08 15:18:51;;;;;;;;;;;;;;;;;;5035027;28;19948;-42
2020/12/08 15:21:16;;;;;;;;;;;;;;;;;;5034515;28;20024;-43
2020/12/08 15:23:42;;;;;;;;;;;;;;;;;;5032906;28;20000;-42
2020/12/08 15:26:07;;;;;;;;;;;;;;;;;;5034584;28;19993;-42
2020/12/08 15:28:32;;;;;;;;;;;;;;;;;;5034303;28;20004;-44
2020/12/08 15:30:58;;;;;;;;;;;;;;;;;;5034397;28;20348;-40
2020/12/08 15:33:23;;;;;;;;;;;;;;;;;;5026290;28;19917;-46
2020/12/08 15:35:48;;;;;;;;;;;;;;;;;;5032132;28;19935;-47
2020/12/08 15:38:13;;;;;;;;;;;;;;;;;;5034177;28;20385;-46
2020/12/08 15:40:38;;;;;;;;;;;;;;;;;;5033378;28;19927;-47
2020/12/08 15:43:03;;;;;;;;;;;;;;;;;;5033066;28;19912;-46
2020/12/08 15:45:28;;;;;;;;;;;;;;;;;;5034251;28;19910;-50
2020/12/08 15:47:54;;;;;;;;;;;;;;;;;;5033831;28;19909;-43
2020/12/08 15:50:23;;;;;;;;;;;;;;;;;;5033778;28;19929;-44
2020/12/08 15:52:48;;;;;;;;;;;;;;;;;;5033655;28;19913;-45
2020/12/08 15:55:13;;;;;;;;;;;;;;;;;;5033853;28;19909;-43
2020/12/08 15:57:38;;;;;;;;;;;;;;;;;;5033920;28;19909;-43
2020/12/08 16:00:03;;;;;;;;;;;;;;;;;;5033778;28;20294;-44
2020/12/08 16:02:28;;;;;;;;;;;;;;;;;;5033448;28;20294;-44
2020/12/08 16:04:53;;;;;;;;;;;;;;;;;;5033775;28;20290;-43
2020/12/08 16:07:19;;;;;;;;;;;;;;;;;;5033107;28;19910;-43
2020/12/08 16:09:44;;;;;;;;;;;;;;;;;;5033497;28;19958;-46
2020/12/08 16:12:09;;;;;;;;;;;;;;;;;;5033720;28;20007;-46
2020/12/08 16:14:34;;;;;;;;;;;;;;;;;;5033549;28;20059;-44
2020/12/08 16:16:59;;;;;;;;;;;;;;;;;;5033216;28;19975;-46
2020/12/08 16:19:25;;;;;;;;;;;;;;;;;;5033532;28;19956;-44
2020/12/08 16:21:50;;;;;;;;;;;;;;;;;;5032908;28;19909;-43
2020/12/08 16:24:15;;;;;;;;;;;;;;;;;;5033263;28;19909;-43
2020/12/08 16:26:40;;;;;;;;;;;;;;;;;;5033384;28;19909;-46
2020/12/08 16:29:05;;;;;;;;;;;;;;;;;;5033344;28;19916;-43
2020/12/08 16:31:30;;;;;;;;;;;;;;;;;;5033503;28;19932;-43